LIMC/MXP METAR and TAF weather

Enter ICAO airport designator
Station Type Date Time Source
LIMC METAR 2019/02/16 01:50 UTC NOAA

LIMC 160150Z 01004KT 7000 NSC M00/M02 Q1032 NOSIG


Station Type Date Time Source
LIMC Decoded METAR 2019/02/16 01:50 UTC NOAA

Milano / Malpensa, Italy (LIMC) 45-37N 008-44E 211M
Feb 15, 2019 - 08:50 PM EST / 2019.02.16 0150 UTC
Wind: from the N (010 degrees) at 5 MPH (4 KT):0
Visibility: 4 mile(s):0
Temperature: 32 F (0 C)
Windchill: 26 F (-3 C):1
Dew Point: 28 F (-2 C)
Relative Humidity: 86%
Pressure (altimeter): 30.47 in. Hg (1032 hPa)
ob: LIMC 160150Z 01004KT 7000 NSC M00/M02 Q1032 NOSIG
cycle: 2

Station Type Date Time Source
LIMC TAF 2019/02/15 18:22 UTC NOAA

TAF LIMC 151700Z 1518/1624 VRB05KT 7000 NSC
TEMPO 1602/1606 1200 BCFG


Example: see airport list